sensor_id;sensor_type;location;lat;lon;timestamp;pressure;altitude;pressure_sealevel;temperature;humidity
54900;BME280;40801;41.924;25.562;2023-06-04T00:00:51;99618.56;;;20.08;71.85
54900;BME280;40801;41.924;25.562;2023-06-04T00:03:17;99615.09;;;20.11;71.20
54900;BME280;40801;41.924;25.562;2023-06-04T00:05:42;99620.50;;;20.07;71.07
54900;BME280;40801;41.924;25.562;2023-06-04T00:08:07;99620.44;;;20.04;70.74
54900;BME280;40801;41.924;25.562;2023-06-04T00:10:33;99629.53;;;20.08;71.13
54900;BME280;40801;41.924;25.562;2023-06-04T00:12:59;99632.69;;;20.10;71.37
54900;BME280;40801;41.924;25.562;2023-06-04T00:15:25;99631.84;;;20.06;72.39
54900;BME280;40801;41.924;25.562;2023-06-04T00:17:51;99630.69;;;20.07;72.60
54900;BME280;40801;41.924;25.562;2023-06-04T00:20:18;99629.75;;;19.99;72.21
54900;BME280;40801;41.924;25.562;2023-06-04T00:22:43;99632.75;;;19.94;72.19
54900;BME280;40801;41.924;25.562;2023-06-04T00:25:09;99628.00;;;19.91;72.60
54900;BME280;40801;41.924;25.562;2023-06-04T00:27:35;99629.59;;;19.92;72.93
54900;BME280;40801;41.924;25.562;2023-06-04T00:30:01;99636.75;;;19.97;72.75
54900;BME280;40801;41.924;25.562;2023-06-04T00:32:26;99632.69;;;19.91;73.32
54900;BME280;40801;41.924;25.562;2023-06-04T00:34:53;99636.75;;;19.97;73.07
54900;BME280;40801;41.924;25.562;2023-06-04T00:37:19;99631.78;;;20.02;72.33
54900;BME280;40801;41.924;25.562;2023-06-04T00:39:45;99634.72;;;19.94;72.78
54900;BME280;40801;41.924;25.562;2023-06-04T00:42:11;99629.53;;;19.89;73.87
54900;BME280;40801;41.924;25.562;2023-06-04T00:44:36;99635.44;;;19.91;74.19
54900;BME280;40801;41.924;25.562;2023-06-04T00:47:02;99633.78;;;19.86;74.10
54900;BME280;40801;41.924;25.562;2023-06-04T00:49:28;99638.91;;;19.88;74.14
54900;BME280;40801;41.924;25.562;2023-06-04T00:51:53;99631.75;;;19.83;73.95
54900;BME280;40801;41.924;25.562;2023-06-04T00:54:19;99632.41;;;19.76;74.10
54900;BME280;40801;41.924;25.562;2023-06-04T00:56:45;99631.56;;;19.72;74.50
54900;BME280;40801;41.924;25.562;2023-06-04T00:59:10;99637.81;;;19.73;74.46
54900;BME280;40801;41.924;25.562;2023-06-04T01:04:27;99628.22;;;19.63;75.81
54900;BME280;40801;41.924;25.562;2023-06-04T01:06:56;99630.53;;;19.61;75.50
54900;BME280;40801;41.924;25.562;2023-06-04T01:09:24;99629.84;;;19.48;78.36
54900;BME280;40801;41.924;25.562;2023-06-04T01:11:50;99631.06;;;19.51;74.67
54900;BME280;40801;41.924;25.562;2023-06-04T01:14:16;99625.53;;;19.47;73.80
54900;BME280;40801;41.924;25.562;2023-06-04T01:16:55;99624.00;;;19.50;74.87
54900;BME280;40801;41.924;25.562;2023-06-04T01:22:38;99623.41;;;19.57;73.64
54900;BME280;40801;41.924;25.562;2023-06-04T01:25:12;99624.81;;;19.50;74.12
54900;BME280;40801;41.924;25.562;2023-06-04T01:27:51;99627.97;;;19.53;74.33
54900;BME280;40801;41.924;25.562;2023-06-04T01:30:21;99627.53;;;19.50;75.16
54900;BME280;40801;41.924;25.562;2023-06-04T01:32:48;99629.34;;;19.43;75.41
54900;BME280;40801;41.924;25.562;2023-06-04T01:35:14;99628.13;;;19.40;77.15
54900;BME280;40801;41.924;25.562;2023-06-04T01:37:39;99628.84;;;19.37;77.45
54900;BME280;40801;41.924;25.562;2023-06-04T01:40:05;99621.06;;;19.39;76.16
54900;BME280;40801;41.924;25.562;2023-06-04T01:42:33;99629.44;;;19.31;76.16
54900;BME280;40801;41.924;25.562;2023-06-04T01:44:58;99627.34;;;19.24;76.90
54900;BME280;40801;41.924;25.562;2023-06-04T01:47:24;99624.09;;;19.18;77.54
54900;BME280;40801;41.924;25.562;2023-06-04T01:49:49;99631.94;;;19.20;77.46
54900;BME280;40801;41.924;25.562;2023-06-04T01:52:15;99631.50;;;19.18;77.49
54900;BME280;40801;41.924;25.562;2023-06-04T01:54:41;99636.69;;;19.23;76.98
54900;BME280;40801;41.924;25.562;2023-06-04T01:57:08;99633.53;;;19.21;78.18
54900;BME280;40801;41.924;25.562;2023-06-04T01:59:35;99638.72;;;19.26;78.24
54900;BME280;40801;41.924;25.562;2023-06-04T02:02:02;99646.06;;;19.22;78.88
54900;BME280;40801;41.924;25.562;2023-06-04T02:04:27;99646.78;;;19.19;79.44
54900;BME280;40801;41.924;25.562;2023-06-04T02:06:53;99652.59;;;19.17;78.62
54900;BME280;40801;41.924;25.562;2023-06-04T02:09:18;99657.28;;;19.17;79.33
54900;BME280;40801;41.924;25.562;2023-06-04T02:11:44;99653.31;;;19.14;78.96
54900;BME280;40801;41.924;25.562;2023-06-04T02:14:09;99664.25;;;19.14;79.08
54900;BME280;40801;41.924;25.562;2023-06-04T02:16:35;99660.63;;;19.10;79.57
54900;BME280;40801;41.924;25.562;2023-06-04T02:19:00;99673.94;;;19.12;79.77
54900;BME280;40801;41.924;25.562;2023-06-04T02:21:26;99672.00;;;19.12;78.49
54900;BME280;40801;41.924;25.562;2023-06-04T02:23:51;99674.66;;;19.09;78.27
54900;BME280;40801;41.924;25.562;2023-06-04T02:26:16;99683.91;;;19.04;78.94
54900;BME280;40801;41.924;25.562;2023-06-04T02:28:42;99686.19;;;19.02;79.45
54900;BME280;40801;41.924;25.562;2023-06-04T02:31:08;99691.22;;;19.00;79.14
54900;BME280;40801;41.924;25.562;2023-06-04T02:33:33;99691.22;;;19.00;79.89
54900;BME280;40801;41.924;25.562;2023-06-04T02:35:58;99700.13;;;18.97;80.14
54900;BME280;40801;41.924;25.562;2023-06-04T02:38:24;99684.53;;;18.98;80.24
54900;BME280;40801;41.924;25.562;2023-06-04T02:40:49;99698.53;;;18.96;80.78
54900;BME280;40801;41.924;25.562;2023-06-04T02:43:15;99698.97;;;18.98;80.96
54900;BME280;40801;41.924;25.562;2023-06-04T02:45:40;99702.88;;;18.97;80.73
54900;BME280;40801;41.924;25.562;2023-06-04T02:48:06;99708.78;;;18.99;80.67
54900;BME280;40801;41.924;25.562;2023-06-04T02:50:32;99694.75;;;19.01;80.29
54900;BME280;40801;41.924;25.562;2023-06-04T02:52:57;99695.47;;;18.98;81.25
54900;BME280;40801;41.924;25.562;2023-06-04T02:55:23;99697.75;;;18.96;81.16
54900;BME280;40801;41.924;25.562;2023-06-04T02:57:48;99704.81;;;18.97;80.88
54900;BME280;40801;41.924;25.562;2023-06-04T03:00:14;99699.78;;;18.99;80.61
54900;BME280;40801;41.924;25.562;2023-06-04T03:02:47;99708.31;;;18.97;80.78
54900;BME280;40801;41.924;25.562;2023-06-04T03:05:15;99717.69;;;18.96;80.42
54900;BME280;40801;41.924;25.562;2023-06-04T03:07:43;99714.16;;;18.96;81.45
54900;BME280;40801;41.924;25.562;2023-06-04T03:10:11;99716.09;;;18.95;81.48
54900;BME280;40801;41.924;25.562;2023-06-04T03:12:36;99713.28;;;18.92;81.03
54900;BME280;40801;41.924;25.562;2023-06-04T03:15:03;99719.97;;;18.94;80.75
54900;BME280;40801;41.924;25.562;2023-06-04T03:17:28;99723.59;;;18.98;81.01
54900;BME280;40801;41.924;25.562;2023-06-04T03:19:54;99715.72;;;18.97;81.45
54900;BME280;40801;41.924;25.562;2023-06-04T03:22:21;99711.84;;;18.98;81.68
54900;BME280;40801;41.924;25.562;2023-06-04T03:24:47;99721.19;;;18.97;81.92
54900;BME280;40801;41.924;25.562;2023-06-04T03:27:12;99721.56;;;18.95;81.63
54900;BME280;40801;41.924;25.562;2023-06-04T03:29:37;99729.41;;;18.97;81.39
54900;BME280;40801;41.924;25.562;2023-06-04T03:32:03;99730.28;;;19.01;81.06
54900;BME280;40801;41.924;25.562;2023-06-04T03:34:29;99727.47;;;18.97;81.00
54900;BME280;40801;41.924;25.562;2023-06-04T03:36:57;99728.34;;;19.01;81.43
54900;BME280;40801;41.924;25.562;2023-06-04T03:39:23;99709.41;;;18.93;81.43
54900;BME280;40801;41.924;25.562;2023-06-04T03:41:48;99732.41;;;19.07;81.46
54900;BME280;40801;41.924;25.562;2023-06-04T03:44:15;99726.03;;;19.03;81.38
54900;BME280;40801;41.924;25.562;2023-06-04T03:46:41;99729.34;;;19.09;81.72
54900;BME280;40801;41.924;25.562;2023-06-04T03:49:08;99724.66;;;19.09;81.44
54900;BME280;40801;41.924;25.562;2023-06-04T03:51:33;99734.53;;;19.14;81.40
54900;BME280;40801;41.924;25.562;2023-06-04T03:53:59;99724.91;;;19.20;81.00
54900;BME280;40801;41.924;25.562;2023-06-04T03:56:25;99719.00;;;19.18;80.81
54900;BME280;40801;41.924;25.562;2023-06-04T03:58:52;99727.00;;;19.27;80.60
54900;BME280;40801;41.924;25.562;2023-06-04T04:01:17;99732.13;;;19.28;81.00
54900;BME280;40801;41.924;25.562;2023-06-04T04:03:43;99734.44;;;19.26;81.26
54900;BME280;40801;41.924;25.562;2023-06-04T04:06:13;99748.19;;;19.30;80.97
54900;BME280;40801;41.924;25.562;2023-06-04T04:08:39;99744.13;;;19.39;80.32
54900;BME280;40801;41.924;25.562;2023-06-04T04:11:11;99743.84;;;19.44;80.53
54900;BME280;40801;41.924;25.562;2023-06-04T04:13:36;99744.38;;;19.50;80.40
54900;BME280;40801;41.924;25.562;2023-06-04T04:16:02;99746.44;;;19.53;80.49
54900;BME280;40801;41.924;25.562;2023-06-04T04:18:28;99750.81;;;19.58;80.40
54900;BME280;40801;41.924;25.562;2023-06-04T04:20:57;99745.19;;;19.66;80.19
54900;BME280;40801;41.924;25.562;2023-06-04T04:26:07;99752.25;;;19.87;80.03
54900;BME280;40801;41.924;25.562;2023-06-04T04:28:33;99746.16;;;19.93;79.59
54900;BME280;40801;41.924;25.562;2023-06-04T04:30:59;99752.59;;;20.01;79.40
54900;BME280;40801;41.924;25.562;2023-06-04T04:33:28;99756.41;;;20.16;78.81
54900;BME280;40801;41.924;25.562;2023-06-04T04:35:58;99756.28;;;20.28;76.46
54900;BME280;40801;41.924;25.562;2023-06-04T04:38:24;99755.28;;;20.36;75.02
54900;BME280;40801;41.924;25.562;2023-06-04T04:40:50;99761.34;;;20.45;73.90
54900;BME280;40801;41.924;25.562;2023-06-04T04:43:32;99765.81;;;20.53;72.73
54900;BME280;40801;41.924;25.562;2023-06-04T04:45:58;99765.59;;;20.62;71.31
54900;BME280;40801;41.924;25.562;2023-06-04T04:48:24;99768.69;;;20.60;70.37
54900;BME280;40801;41.924;25.562;2023-06-04T04:50:50;99777.91;;;20.52;72.10
54900;BME280;40801;41.924;25.562;2023-06-04T04:53:16;99773.31;;;20.56;72.12
54900;BME280;40801;41.924;25.562;2023-06-04T04:55:41;99776.69;;;20.69;70.97
54900;BME280;40801;41.924;25.562;2023-06-04T04:58:06;99786.91;;;20.72;70.18
54900;BME280;40801;41.924;25.562;2023-06-04T05:00:32;99787.78;;;20.76;70.44
54900;BME280;40801;41.924;25.562;2023-06-04T05:02:57;99785.25;;;20.87;70.70
54900;BME280;40801;41.924;25.562;2023-06-04T05:05:23;99785.88;;;20.99;69.77
54900;BME280;40801;41.924;25.562;2023-06-04T05:07:48;99794.56;;;21.05;69.80
54900;BME280;40801;41.924;25.562;2023-06-04T05:10:14;99794.56;;;21.05;69.71
54900;BME280;40801;41.924;25.562;2023-06-04T05:12:39;99791.47;;;21.07;69.59
54900;BME280;40801;41.924;25.562;2023-06-04T05:15:05;99795.63;;;21.20;69.11
54900;BME280;40801;41.924;25.562;2023-06-04T05:17:31;99786.03;;;21.29;69.25
54900;BME280;40801;41.924;25.562;2023-06-04T05:19:57;99796.81;;;21.42;68.75
54900;BME280;40801;41.924;25.562;2023-06-04T05:22:28;99800.34;;;21.42;68.12
54900;BME280;40801;41.924;25.562;2023-06-04T05:24:54;99797.31;;;21.47;68.10
54900;BME280;40801;41.924;25.562;2023-06-04T05:27:20;99804.38;;;21.48;67.91
54900;BME280;40801;41.924;25.562;2023-06-04T05:29:45;99811.91;;;21.55;68.07
54900;BME280;40801;41.924;25.562;2023-06-04T05:32:11;99809.97;;;21.55;67.61
54900;BME280;40801;41.924;25.562;2023-06-04T05:34:36;99813.34;;;21.45;67.11
54900;BME280;40801;41.924;25.562;2023-06-04T05:37:02;99804.22;;;21.64;66.94
54900;BME280;40801;41.924;25.562;2023-06-04T05:39:29;99815.03;;;21.53;67.35
54900;BME280;40801;41.924;25.562;2023-06-04T05:41:54;99812.13;;;21.43;67.26
54900;BME280;40801;41.924;25.562;2023-06-04T05:44:20;99812.72;;;21.55;67.56
54900;BME280;40801;41.924;25.562;2023-06-04T05:46:45;99824.59;;;21.63;67.28
54900;BME280;40801;41.924;25.562;2023-06-04T05:49:11;99831.28;;;21.65;67.54
54900;BME280;40801;41.924;25.562;2023-06-04T05:51:36;99831.00;;;21.71;67.69
54900;BME280;40801;41.924;25.562;2023-06-04T05:54:02;99839.41;;;21.81;67.42
54900;BME280;40801;41.924;25.562;2023-06-04T05:56:28;99835.03;;;21.77;67.52
54900;BME280;40801;41.924;25.562;2023-06-04T05:58:53;99841.31;;;21.77;66.99
54900;BME280;40801;41.924;25.562;2023-06-04T06:01:19;99847.16;;;21.76;67.59
54900;BME280;40801;41.924;25.562;2023-06-04T06:03:45;99845.22;;;21.76;67.17
54900;BME280;40801;41.924;25.562;2023-06-04T06:06:10;99853.91;;;21.82;67.05
54900;BME280;40801;41.924;25.562;2023-06-04T06:08:35;99848.06;;;21.83;67.01
54900;BME280;40801;41.924;25.562;2023-06-04T06:11:01;99848.53;;;21.89;66.60
54900;BME280;40801;41.924;25.562;2023-06-04T06:13:29;99854.81;;;21.89;66.49
54900;BME280;40801;41.924;25.562;2023-06-04T06:15:55;99862.53;;;21.80;66.74
54900;BME280;40801;41.924;25.562;2023-06-04T06:18:21;99862.84;;;21.75;66.98
54900;BME280;40801;41.924;25.562;2023-06-04T06:20:46;99863.53;;;21.69;67.46
54900;BME280;40801;41.924;25.562;2023-06-04T06:23:11;99868.44;;;21.59;67.52
54900;BME280;40801;41.924;25.562;2023-06-04T06:25:37;99872.19;;;21.48;66.86
54900;BME280;40801;41.924;25.562;2023-06-04T06:28:06;99876.19;;;21.54;67.54
54900;BME280;40801;41.924;25.562;2023-06-04T06:30:31;99879.69;;;21.51;67.71
54900;BME280;40801;41.924;25.562;2023-06-04T06:32:56;99878.78;;;21.43;67.91
54900;BME280;40801;41.924;25.562;2023-06-04T06:35:22;99881.47;;;21.40;67.83
54900;BME280;40801;41.924;25.562;2023-06-04T06:37:47;99885.69;;;21.37;68.00
54900;BME280;40801;41.924;25.562;2023-06-04T06:40:12;99884.47;;;21.34;67.28
54900;BME280;40801;41.924;25.562;2023-06-04T06:42:38;99881.78;;;21.38;67.46
54900;BME280;40801;41.924;25.562;2023-06-04T06:45:04;99886.28;;;21.46;68.01
54900;BME280;40801;41.924;25.562;2023-06-04T06:47:29;99886.34;;;21.50;68.02
54900;BME280;40801;41.924;25.562;2023-06-04T06:49:55;99889.19;;;21.57;67.62
54900;BME280;40801;41.924;25.562;2023-06-04T06:52:20;99889.88;;;21.50;68.04
54900;BME280;40801;41.924;25.562;2023-06-04T06:54:46;99897.00;;;21.55;68.33
54900;BME280;40801;41.924;25.562;2023-06-04T06:57:12;99897.19;;;21.65;68.41
54900;BME280;40801;41.924;25.562;2023-06-04T06:59:37;99898.22;;;21.80;68.07
54900;BME280;40801;41.924;25.562;2023-06-04T07:02:03;99901.59;;;21.96;67.68
54900;BME280;40801;41.924;25.562;2023-06-04T07:04:29;99900.59;;;22.05;67.44
54900;BME280;40801;41.924;25.562;2023-06-04T07:06:54;99901.88;;;22.11;67.30
54900;BME280;40801;41.924;25.562;2023-06-04T07:09:20;99904.50;;;22.04;67.34
54900;BME280;40801;41.924;25.562;2023-06-04T07:11:45;99903.69;;;22.03;66.75
54900;BME280;40801;41.924;25.562;2023-06-04T07:14:10;99911.31;;;22.13;66.94
54900;BME280;40801;41.924;25.562;2023-06-04T07:16:36;99909.41;;;22.17;66.99
54900;BME280;40801;41.924;25.562;2023-06-04T07:19:01;99920.22;;;22.30;67.05
54900;BME280;40801;41.924;25.562;2023-06-04T07:21:27;99917.75;;;22.24;67.08
54900;BME280;40801;41.924;25.562;2023-06-04T07:23:53;99915.09;;;22.28;66.50
54900;BME280;40801;41.924;25.562;2023-06-04T07:26:18;99915.59;;;22.37;66.63
54900;BME280;40801;41.924;25.562;2023-06-04T07:28:43;99920.88;;;22.49;66.29
54900;BME280;40801;41.924;25.562;2023-06-04T07:31:09;99916.69;;;22.29;66.76
54900;BME280;40801;41.924;25.562;2023-06-04T07:33:35;99917.25;;;22.42;66.59
54900;BME280;40801;41.924;25.562;2023-06-04T07:36:14;99919.88;;;22.61;66.34
54900;BME280;40801;41.924;25.562;2023-06-04T07:38:40;99922.28;;;22.66;66.04
54900;BME280;40801;41.924;25.562;2023-06-04T07:41:06;99917.94;;;22.92;65.91
54900;BME280;40801;41.924;25.562;2023-06-04T07:43:33;99917.25;;;23.02;66.02
54900;BME280;40801;41.924;25.562;2023-06-04T07:45:59;99919.81;;;23.17;65.76
54900;BME280;40801;41.924;25.562;2023-06-04T07:48:25;99924.25;;;23.29;64.66
54900;BME280;40801;41.924;25.562;2023-06-04T07:50:59;99920.81;;;23.39;64.46
54900;BME280;40801;41.924;25.562;2023-06-04T07:53:24;99927.59;;;23.45;64.74
54900;BME280;40801;41.924;25.562;2023-06-04T07:56:08;99934.03;;;23.60;63.86
54900;BME280;40801;41.924;25.562;2023-06-04T07:58:34;99936.41;;;23.62;64.04
54900;BME280;40801;41.924;25.562;2023-06-04T08:00:59;99933.06;;;23.83;63.88
54900;BME280;40801;41.924;25.562;2023-06-04T08:03:25;99935.88;;;23.90;63.98
54900;BME280;40801;41.924;25.562;2023-06-04T08:05:50;99939.81;;;23.89;62.92
54900;BME280;40801;41.924;25.562;2023-06-04T08:08:15;99936.09;;;24.18;62.63
54900;BME280;40801;41.924;25.562;2023-06-04T08:10:41;99944.59;;;24.43;62.64
54900;BME280;40801;41.924;25.562;2023-06-04T08:13:07;99950.09;;;24.43;62.60
54900;BME280;40801;41.924;25.562;2023-06-04T08:15:33;99948.56;;;24.49;61.88
54900;BME280;40801;41.924;25.562;2023-06-04T08:17:59;99944.03;;;24.27;61.67
54900;BME280;40801;41.924;25.562;2023-06-04T08:20:24;99944.50;;;24.29;62.17
54900;BME280;40801;41.924;25.562;2023-06-04T08:22:50;99951.59;;;24.30;61.45
54900;BME280;40801;41.924;25.562;2023-06-04T08:25:16;99955.56;;;24.36;62.23
54900;BME280;40801;41.924;25.562;2023-06-04T08:27:41;99950.94;;;24.54;61.86
54900;BME280;40801;41.924;25.562;2023-06-04T08:30:08;99947.22;;;24.91;61.26
54900;BME280;40801;41.924;25.562;2023-06-04T08:32:34;99955.25;;;25.28;60.38
54900;BME280;40801;41.924;25.562;2023-06-04T08:34:59;99957.69;;;25.47;59.70
54900;BME280;40801;41.924;25.562;2023-06-04T08:37:25;99947.44;;;25.55;57.56
54900;BME280;40801;41.924;25.562;2023-06-04T08:39:50;99951.84;;;25.77;57.23
54900;BME280;40801;41.924;25.562;2023-06-04T08:42:22;99957.78;;;25.93;56.94
54900;BME280;40801;41.924;25.562;2023-06-04T08:44:52;99954.94;;;25.61;55.37
54900;BME280;40801;41.924;25.562;2023-06-04T08:47:20;99957.69;;;25.58;56.64
54900;BME280;40801;41.924;25.562;2023-06-04T08:49:49;99957.63;;;25.19;55.99
54900;BME280;40801;41.924;25.562;2023-06-04T08:52:16;99957.66;;;25.37;56.30
54900;BME280;40801;41.924;25.562;2023-06-04T08:54:41;99955.63;;;25.19;57.61
54900;BME280;40801;41.924;25.562;2023-06-04T08:57:07;99966.69;;;25.19;58.43
54900;BME280;40801;41.924;25.562;2023-06-04T08:59:33;99967.19;;;24.66;58.98
54900;BME280;40801;41.924;25.562;2023-06-04T09:01:59;99963.56;;;24.55;59.71
54900;BME280;40801;41.924;25.562;2023-06-04T09:04:25;99964.88;;;24.24;60.63
54900;BME280;40801;41.924;25.562;2023-06-04T09:06:51;99968.19;;;24.40;60.49
54900;BME280;40801;41.924;25.562;2023-06-04T09:09:18;99977.06;;;24.20;61.36
54900;BME280;40801;41.924;25.562;2023-06-04T09:11:46;99974.13;;;24.46;60.64
54900;BME280;40801;41.924;25.562;2023-06-04T09:14:14;99961.94;;;24.51;60.70
54900;BME280;40801;41.924;25.562;2023-06-04T09:16:53;99960.09;;;24.65;59.85
54900;BME280;40801;41.924;25.562;2023-06-04T09:19:21;99971.31;;;25.01;59.58
54900;BME280;40801;41.924;25.562;2023-06-04T09:24:14;99960.31;;;25.05;58.74
54900;BME280;40801;41.924;25.562;2023-06-04T09:26:40;99971.81;;;25.24;58.65
54900;BME280;40801;41.924;25.562;2023-06-04T09:29:05;99966.53;;;24.91;59.96
54900;BME280;40801;41.924;25.562;2023-06-04T09:31:31;99963.59;;;25.46;58.95
54900;BME280;40801;41.924;25.562;2023-06-04T09:34:02;99959.69;;;25.61;58.76
54900;BME280;40801;41.924;25.562;2023-06-04T09:36:34;99960.91;;;25.71;58.52
54900;BME280;40801;41.924;25.562;2023-06-04T09:39:04;99961.66;;;25.53;58.72
54900;BME280;40801;41.924;25.562;2023-06-04T09:41:39;99954.47;;;25.31;59.69
54900;BME280;40801;41.924;25.562;2023-06-04T09:44:05;99947.84;;;25.53;59.30
54900;BME280;40801;41.924;25.562;2023-06-04T09:46:31;99951.44;;;25.68;59.02
54900;BME280;40801;41.924;25.562;2023-06-04T09:49:01;99950.66;;;25.78;60.06
54900;BME280;40801;41.924;25.562;2023-06-04T09:51:28;99945.91;;;25.72;59.28
54900;BME280;40801;41.924;25.562;2023-06-04T09:54:12;99956.91;;;25.57;58.05
54900;BME280;40801;41.924;25.562;2023-06-04T09:56:41;99950.59;;;25.57;58.27
54900;BME280;40801;41.924;25.562;2023-06-04T09:59:08;99950.25;;;25.69;58.65
54900;BME280;40801;41.924;25.562;2023-06-04T10:01:38;99959.34;;;25.80;58.15
54900;BME280;40801;41.924;25.562;2023-06-04T10:04:07;99960.53;;;26.01;56.92
54900;BME280;40801;41.924;25.562;2023-06-04T10:06:34;99956.91;;;25.64;57.79
54900;BME280;40801;41.924;25.562;2023-06-04T10:09:05;99952.22;;;25.72;58.36
54900;BME280;40801;41.924;25.562;2023-06-04T10:11:34;99956.97;;;25.82;58.27
54900;BME280;40801;41.924;25.562;2023-06-04T10:14:45;99957.75;;;26.01;57.43
54900;BME280;40801;41.924;25.562;2023-06-04T10:16:51;99966.88;;;26.12;56.13
54900;BME280;40801;41.924;25.562;2023-06-04T10:19:18;99964.88;;;25.98;56.20
54900;BME280;40801;41.924;25.562;2023-06-04T10:21:44;99958.16;;;25.96;56.64
54900;BME280;40801;41.924;25.562;2023-06-04T10:24:09;99962.13;;;25.80;56.69
54900;BME280;40801;41.924;25.562;2023-06-04T10:26:36;99962.47;;;25.68;57.19
54900;BME280;40801;41.924;25.562;2023-06-04T10:29:03;99957.28;;;25.45;57.49
54900;BME280;40801;41.924;25.562;2023-06-04T10:31:29;99957.69;;;25.58;57.23
54900;BME280;40801;41.924;25.562;2023-06-04T10:33:55;99964.06;;;25.73;57.09
54900;BME280;40801;41.924;25.562;2023-06-04T10:36:22;99964.44;;;25.68;57.37
54900;BME280;40801;41.924;25.562;2023-06-04T10:38:50;99969.63;;;25.80;57.14
54900;BME280;40801;41.924;25.562;2023-06-04T10:44:01;99966.47;;;25.78;57.11
54900;BME280;40801;41.924;25.562;2023-06-04T10:46:37;99964.34;;;25.36;57.48
54900;BME280;40801;41.924;25.562;2023-06-04T10:49:04;99968.00;;;25.72;57.57
54900;BME280;40801;41.924;25.562;2023-06-04T10:53:58;99964.88;;;25.80;57.81
54900;BME280;40801;41.924;25.562;2023-06-04T10:56:31;99962.50;;;25.93;55.75
54900;BME280;40801;41.924;25.562;2023-06-04T10:59:16;99962.50;;;25.75;54.87
54900;BME280;40801;41.924;25.562;2023-06-04T11:01:42;99962.50;;;26.18;55.25
54900;BME280;40801;41.924;25.562;2023-06-04T11:04:18;99956.97;;;26.25;53.88
54900;BME280;40801;41.924;25.562;2023-06-04T11:06:44;99955.31;;;26.81;53.98
54900;BME280;40801;41.924;25.562;2023-06-04T11:09:13;99964.75;;;27.01;52.81
54900;BME280;40801;41.924;25.562;2023-06-04T11:11:41;99953.63;;;27.12;53.61
54900;BME280;40801;41.924;25.562;2023-06-04T11:14:08;99957.88;;;27.34;53.03
54900;BME280;40801;41.924;25.562;2023-06-04T11:16:34;99950.25;;;27.53;52.18
54900;BME280;40801;41.924;25.562;2023-06-04T11:18:59;99955.28;;;27.72;51.46
54900;BME280;40801;41.924;25.562;2023-06-04T11:21:25;99951.38;;;27.66;51.53
54900;BME280;40801;41.924;25.562;2023-06-04T11:24:00;99946.19;;;28.20;49.20
54900;BME280;40801;41.924;25.562;2023-06-04T11:26:44;99936.66;;;28.62;49.87
54900;BME280;40801;41.924;25.562;2023-06-04T11:29:11;99941.75;;;29.05;49.14
54900;BME280;40801;41.924;25.562;2023-06-04T11:31:44;99939.06;;;29.58;45.95
54900;BME280;40801;41.924;25.562;2023-06-04T11:34:11;99928.22;;;29.91;46.74
54900;BME280;40801;41.924;25.562;2023-06-04T11:36:46;99933.03;;;30.14;46.29
54900;BME280;40801;41.924;25.562;2023-06-04T11:39:15;99933.13;;;30.73;45.17
54900;BME280;40801;41.924;25.562;2023-06-04T11:41:40;99924.53;;;31.04;44.01
54900;BME280;40801;41.924;25.562;2023-06-04T11:44:07;99933.75;;;31.21;43.50
54900;BME280;40801;41.924;25.562;2023-06-04T11:46:33;99929.81;;;31.70;42.36
54900;BME280;40801;41.924;25.562;2023-06-04T11:48:59;99921.34;;;32.23;41.42
54900;BME280;40801;41.924;25.562;2023-06-04T11:51:26;99921.88;;;32.63;39.10
54900;BME280;40801;41.924;25.562;2023-06-04T11:53:51;99928.31;;;32.76;39.63
54900;BME280;40801;41.924;25.562;2023-06-04T11:56:17;99915.69;;;33.26;38.07
54900;BME280;40801;41.924;25.562;2023-06-04T11:58:43;99917.03;;;33.60;38.18
54900;BME280;40801;41.924;25.562;2023-06-04T12:01:11;99922.53;;;33.63;37.53
54900;BME280;40801;41.924;25.562;2023-06-04T12:03:38;99923.31;;;33.89;35.88
54900;BME280;40801;41.924;25.562;2023-06-04T12:06:29;99921.38;;;33.73;35.03
54900;BME280;40801;41.924;25.562;2023-06-04T12:08:55;99926.78;;;33.42;36.88
54900;BME280;40801;41.924;25.562;2023-06-04T12:14:17;99931.06;;;32.18;37.97
54900;BME280;40801;41.924;25.562;2023-06-04T12:16:56;99930.25;;;32.34;38.77
54900;BME280;40801;41.924;25.562;2023-06-04T12:19:22;99921.94;;;32.76;37.23
54900;BME280;40801;41.924;25.562;2023-06-04T12:22:05;99931.00;;;31.89;37.17
54900;BME280;40801;41.924;25.562;2023-06-04T12:24:33;99935.38;;;31.38;38.89
54900;BME280;40801;41.924;25.562;2023-06-04T12:27:07;99936.19;;;30.99;39.84
54900;BME280;40801;41.924;25.562;2023-06-04T12:29:33;99926.03;;;30.49;40.55
54900;BME280;40801;41.924;25.562;2023-06-04T12:32:07;99931.97;;;30.04;40.76
54900;BME280;40801;41.924;25.562;2023-06-04T12:34:40;99932.09;;;29.97;42.01
54900;BME280;40801;41.924;25.562;2023-06-04T12:37:06;99929.88;;;30.12;41.87
54900;BME280;40801;41.924;25.562;2023-06-04T12:39:35;99936.31;;;30.09;40.84
54900;BME280;40801;41.924;25.562;2023-06-04T12:42:03;99932.97;;;30.17;41.47
54900;BME280;40801;41.924;25.562;2023-06-04T12:44:28;99935.06;;;30.33;40.98
54900;BME280;40801;41.924;25.562;2023-06-04T12:46:54;99935.63;;;30.25;40.48
54900;BME280;40801;41.924;25.562;2023-06-04T12:49:19;99938.78;;;30.00;40.63
54900;BME280;40801;41.924;25.562;2023-06-04T12:51:45;99938.28;;;29.58;41.56
54900;BME280;40801;41.924;25.562;2023-06-04T12:54:10;99937.09;;;28.19;45.78
54900;BME280;40801;41.924;25.562;2023-06-04T12:56:36;99946.50;;;27.84;48.93
54900;BME280;40801;41.924;25.562;2023-06-04T12:59:01;99939.84;;;27.71;50.14
54900;BME280;40801;41.924;25.562;2023-06-04T13:01:27;99936.94;;;27.30;51.95
54900;BME280;40801;41.924;25.562;2023-06-04T13:03:53;99938.91;;;27.33;53.26
54900;BME280;40801;41.924;25.562;2023-06-04T13:06:18;99937.78;;;27.16;54.44
54900;BME280;40801;41.924;25.562;2023-06-04T13:08:44;99940.97;;;27.11;53.83